createdAt,value
2017-12-02T00:01:08.967Z,19.10
2017-12-02T00:03:36.536Z,19.93
2017-12-02T00:06:04.087Z,19.80
2017-12-02T00:08:31.648Z,19.70
2017-12-02T00:10:59.180Z,21.20
2017-12-02T00:13:26.728Z,19.83
2017-12-02T00:15:54.236Z,20.27
2017-12-02T00:18:21.759Z,18.87
2017-12-02T00:20:49.316Z,15.03
2017-12-02T00:23:16.871Z,15.20
2017-12-02T00:25:44.381Z,12.07
2017-12-02T00:28:11.933Z,12.30
2017-12-02T00:30:40.228Z,10.77
2017-12-02T00:33:07.776Z,10.03
2017-12-02T00:35:36.078Z,11.83
2017-12-02T00:38:03.639Z,12.57
2017-12-02T00:40:31.505Z,13.23
2017-12-02T00:42:59.013Z,13.03
2017-12-02T00:45:26.603Z,13.83
2017-12-02T00:47:54.901Z,14.13
2017-12-02T00:50:22.435Z,13.07
2017-12-02T00:52:50.824Z,14.00
2017-12-02T00:55:19.120Z,14.20
2017-12-02T00:57:46.677Z,12.30
2017-12-02T01:00:14.196Z,13.80
2017-12-02T01:02:41.748Z,14.33
2017-12-02T01:05:09.260Z,14.87
2017-12-02T01:07:36.776Z,14.00
2017-12-02T01:10:04.362Z,13.93
2017-12-02T01:12:31.903Z,14.67
2017-12-02T01:14:59.454Z,14.97
2017-12-02T01:17:27.770Z,14.13
2017-12-02T01:19:55.282Z,14.93
2017-12-02T01:22:23.154Z,14.37
2017-12-02T01:24:50.666Z,14.77
2017-12-02T01:27:18.224Z,14.33
2017-12-02T01:29:45.764Z,14.17
2017-12-02T01:32:13.276Z,15.43
2017-12-02T01:34:40.833Z,15.10
2017-12-02T01:37:08.350Z,15.03
2017-12-02T01:39:35.911Z,14.50
2017-12-02T01:42:03.444Z,14.87
2017-12-02T01:44:30.980Z,13.83
2017-12-02T01:46:58.504Z,13.70
2017-12-02T01:49:26.057Z,14.27
2017-12-02T01:51:53.575Z,14.00
2017-12-02T01:54:21.890Z,13.27
2017-12-02T01:56:49.416Z,13.97
2017-12-02T01:59:16.964Z,13.90
2017-12-02T02:01:44.508Z,14.73
2017-12-02T02:04:12.056Z,14.57
2017-12-02T02:06:39.583Z,15.43
2017-12-02T02:09:07.134Z,14.63
2017-12-02T02:11:34.649Z,14.97
2017-12-02T02:14:02.218Z,14.90
2017-12-02T02:16:29.724Z,15.20
2017-12-02T02:18:57.356Z,15.47
2017-12-02T02:21:24.907Z,15.67
2017-12-02T02:23:53.220Z,15.30
2017-12-02T02:26:20.773Z,15.00
2017-12-02T02:28:48.308Z,17.83
2017-12-02T02:31:16.584Z,17.10
2017-12-02T02:33:49.083Z,16.90
2017-12-02T02:36:16.623Z,15.60
2017-12-02T02:38:44.930Z,16.40
2017-12-02T02:41:12.491Z,17.77
2017-12-02T02:43:45.036Z,17.27
2017-12-02T02:46:13.345Z,16.57
2017-12-02T02:48:41.156Z,18.27
2017-12-02T02:51:08.715Z,16.67
2017-12-02T02:53:36.233Z,17.17
2017-12-02T02:56:04.101Z,17.83
2017-12-02T02:58:31.630Z,17.70
2017-12-02T03:00:59.213Z,17.70
2017-12-02T03:03:26.747Z,16.70
2017-12-02T03:05:54.316Z,17.07
2017-12-02T03:08:21.838Z,17.57
2017-12-02T03:10:49.397Z,17.40
2017-12-02T03:13:16.922Z,18.43
2017-12-02T03:15:44.481Z,18.50
2017-12-02T03:18:12.002Z,18.67
2017-12-02T03:20:40.335Z,18.07
2017-12-02T03:23:07.894Z,18.43
2017-12-02T03:25:35.465Z,17.87
2017-12-02T03:28:03.002Z,18.60
2017-12-02T03:30:30.558Z,19.30
2017-12-02T03:32:58.085Z,17.50
2017-12-02T03:35:25.661Z,17.00
2017-12-02T03:37:53.232Z,16.63
2017-12-02T03:40:20.800Z,16.73
2017-12-02T03:42:48.358Z,15.63
2017-12-02T03:45:15.938Z,17.13
2017-12-02T03:47:43.509Z,15.57
2017-12-02T03:50:11.631Z,17.27
2017-12-02T03:52:39.286Z,19.20
2017-12-02T03:55:06.806Z,17.83
2017-12-02T03:57:34.368Z,16.90
2017-12-02T04:00:01.901Z,18.30
2017-12-02T04:02:29.465Z,16.83
2017-12-02T04:04:57.064Z,17.63
2017-12-02T04:07:25.393Z,17.97
2017-12-02T04:09:52.954Z,18.20
2017-12-02T04:12:20.493Z,17.57
2017-12-02T04:14:48.076Z,17.67
2017-12-02T04:17:15.605Z,18.87
2017-12-02T04:19:43.170Z,18.50
2017-12-02T04:22:10.693Z,19.77
2017-12-02T04:24:38.266Z,19.33
2017-12-02T04:27:05.797Z,18.17
2017-12-02T04:29:33.376Z,20.00
2017-12-02T04:32:00.897Z,21.37
2017-12-02T04:34:28.429Z,20.50
2017-12-02T04:36:56.015Z,20.07
2017-12-02T04:39:23.538Z,20.77
2017-12-02T04:41:51.157Z,21.77
2017-12-02T04:44:18.698Z,20.47
2017-12-02T04:46:46.266Z,22.73
2017-12-02T04:49:13.882Z,21.23
2017-12-02T04:51:41.410Z,22.53
2017-12-02T04:54:08.956Z,22.50
2017-12-02T04:56:36.551Z,21.00
2017-12-02T04:59:04.085Z,21.70
2017-12-02T05:01:31.656Z,25.33
2017-12-02T05:03:59.999Z,25.50
2017-12-02T05:06:27.551Z,21.43
2017-12-02T05:08:55.114Z,21.90
2017-12-02T05:11:23.056Z,21.77
2017-12-02T05:13:50.597Z,20.77
2017-12-02T05:16:18.153Z,22.53
2017-12-02T05:18:45.694Z,20.90
2017-12-02T05:21:14.025Z,22.43
2017-12-02T05:23:41.612Z,21.90
2017-12-02T05:26:09.138Z,22.60
2017-12-02T05:28:36.697Z,21.97
2017-12-02T05:31:04.260Z,23.17
2017-12-02T05:33:31.790Z,22.40
2017-12-02T05:35:59.349Z,22.93
2017-12-02T05:38:26.869Z,21.70
2017-12-02T05:40:54.428Z,22.43
2017-12-02T05:43:21.953Z,22.27
2017-12-02T05:45:49.516Z,22.37
2017-12-02T05:48:17.052Z,21.60
2017-12-02T05:50:44.614Z,22.97
2017-12-02T05:53:12.129Z,23.47
2017-12-02T05:55:39.742Z,23.27
2017-12-02T05:58:07.294Z,22.00
2017-12-02T06:00:34.834Z,23.07
2017-12-02T06:03:02.390Z,22.33
2017-12-02T06:05:30.702Z,21.20
2017-12-02T06:07:58.281Z,22.20
2017-12-02T06:10:25.845Z,23.13
2017-12-02T06:12:53.367Z,23.37
2017-12-02T06:15:20.977Z,23.30
2017-12-02T06:17:48.517Z,21.87
2017-12-02T06:20:16.081Z,22.90
2017-12-02T06:22:43.614Z,22.73
2017-12-02T06:25:11.178Z,21.13
2017-12-02T06:27:38.698Z,22.40
2017-12-02T06:30:06.269Z,22.57
2017-12-02T06:32:33.834Z,22.70
2017-12-02T06:35:01.396Z,23.43
2017-12-02T06:37:28.941Z,20.70
2017-12-02T06:39:57.265Z,22.57
2017-12-02T06:42:24.793Z,23.20
2017-12-02T06:44:52.354Z,21.77
2017-12-02T06:47:19.887Z,20.67
2017-12-02T06:49:47.459Z,19.43
2017-12-02T06:52:15.773Z,21.00
2017-12-02T06:54:44.294Z,21.43
2017-12-02T06:57:11.830Z,20.97
2017-12-02T06:59:39.368Z,20.60
2017-12-02T07:02:06.941Z,19.40
2017-12-02T07:04:34.469Z,20.97
2017-12-02T07:07:02.025Z,20.37
2017-12-02T07:09:29.572Z,20.07
2017-12-02T07:11:57.856Z,19.23
2017-12-02T07:14:25.421Z,20.40
2017-12-02T07:16:53.762Z,20.03
2017-12-02T07:19:21.297Z,19.63
2017-12-02T07:21:48.873Z,20.33
2017-12-02T07:24:16.403Z,19.80
2017-12-02T07:26:44.264Z,19.47
2017-12-02T07:29:11.818Z,19.47
2017-12-02T07:31:39.377Z,20.47
2017-12-02T07:34:06.904Z,19.00
2017-12-02T07:36:35.229Z,18.63
2017-12-02T07:39:02.862Z,19.57
2017-12-02T07:41:30.408Z,17.83
2017-12-02T07:43:57.929Z,18.03
2017-12-02T07:46:25.498Z,19.03
2017-12-02T07:48:53.024Z,17.10
2017-12-02T07:51:20.666Z,18.10
2017-12-02T07:53:48.195Z,16.20
2017-12-02T07:56:15.766Z,16.83
2017-12-02T07:58:43.301Z,16.63
2017-12-02T08:01:10.874Z,15.93
2017-12-02T08:03:38.439Z,15.10
2017-12-02T08:06:06.045Z,17.07
2017-12-02T08:08:33.593Z,17.60
2017-12-02T08:11:01.203Z,17.30
2017-12-02T08:13:28.768Z,17.97
2017-12-02T08:15:56.357Z,15.43
2017-12-02T08:18:23.916Z,17.00
2017-12-02T08:20:51.480Z,16.47
2017-12-02T08:23:19.007Z,16.90
2017-12-02T08:25:46.569Z,18.00
2017-12-02T08:28:14.674Z,17.30
2017-12-02T08:30:42.287Z,18.47
2017-12-02T08:33:09.868Z,17.20
2017-12-02T08:35:38.149Z,18.43
2017-12-02T08:38:05.712Z,17.60
2017-12-02T08:40:34.025Z,18.17
2017-12-02T08:43:01.610Z,18.10
2017-12-02T08:45:29.157Z,18.17
2017-12-02T08:47:56.721Z,17.73
2017-12-02T08:50:24.301Z,17.47
2017-12-02T08:52:51.877Z,18.77
2017-12-02T08:55:19.457Z,18.33
2017-12-02T08:57:47.786Z,18.20
2017-12-02T09:00:15.351Z,17.27
2017-12-02T09:02:42.894Z,17.77
2017-12-02T09:05:10.462Z,18.03
2017-12-02T09:07:38.089Z,18.43
2017-12-02T09:10:05.665Z,18.20
2017-12-02T09:12:33.246Z,17.50
2017-12-02T09:15:01.246Z,18.60
2017-12-02T09:17:28.824Z,17.57
2017-12-02T09:19:56.345Z,17.43
2017-12-02T09:22:23.928Z,18.37
2017-12-02T09:24:52.238Z,17.83
2017-12-02T09:27:19.830Z,17.20
2017-12-02T09:29:47.575Z,18.20
2017-12-02T09:32:15.158Z,17.90
2017-12-02T09:34:42.685Z,16.50
2017-12-02T09:37:10.264Z,18.13
2017-12-02T09:39:37.832Z,17.00
2017-12-02T09:42:05.477Z,17.13
2017-12-02T09:44:33.063Z,17.37
2017-12-02T09:47:00.589Z,17.90
2017-12-02T09:49:28.145Z,17.47
2017-12-02T09:51:55.706Z,16.37
2017-12-02T09:54:23.280Z,16.37
2017-12-02T09:56:50.855Z,16.83
2017-12-02T09:59:18.425Z,15.63
2017-12-02T10:01:45.977Z,15.83
2017-12-02T10:04:13.541Z,16.63
2017-12-02T10:06:41.176Z,16.90
2017-12-02T10:09:08.694Z,16.17
2017-12-02T10:11:37.025Z,14.53
2017-12-02T10:14:04.657Z,16.07
2017-12-02T10:16:32.437Z,16.17
2017-12-02T10:18:59.995Z,15.77
2017-12-02T10:21:27.513Z,16.33
2017-12-02T10:23:55.134Z,16.03
2017-12-02T10:26:22.779Z,17.20
2017-12-02T10:28:50.355Z,16.27
2017-12-02T10:31:17.913Z,17.63
2017-12-02T10:33:45.489Z,17.40
2017-12-02T10:36:13.020Z,17.97
2017-12-02T10:38:40.637Z,18.63
2017-12-02T10:41:08.190Z,18.93
2017-12-02T10:43:35.754Z,19.87
2017-12-02T10:46:03.762Z,18.90
2017-12-02T10:48:31.334Z,20.33
2017-12-02T10:50:58.876Z,19.83
2017-12-02T10:53:26.447Z,20.17
2017-12-02T10:55:54.000Z,19.03
2017-12-02T10:58:21.738Z,20.07
2017-12-02T11:00:49.291Z,20.77
2017-12-02T11:03:17.607Z,19.63
2017-12-02T11:05:45.178Z,22.50
2017-12-02T11:08:12.781Z,21.73
2017-12-02T11:10:40.305Z,18.50
2017-12-02T11:13:07.941Z,16.70
2017-12-02T11:15:35.454Z,19.87
2017-12-02T11:18:03.065Z,17.60
2017-12-02T11:20:30.606Z,17.97
2017-12-02T11:22:58.902Z,17.13
2017-12-02T11:25:26.734Z,16.53
2017-12-02T11:27:55.061Z,17.80
2017-12-02T11:30:22.611Z,18.13
2017-12-02T11:32:50.181Z,18.53
2017-12-02T11:35:17.709Z,17.70
2017-12-02T11:37:46.029Z,17.83
2017-12-02T11:40:13.582Z,17.10
2017-12-02T11:42:41.354Z,18.00
2017-12-02T11:45:08.875Z,18.63
2017-12-02T11:47:36.558Z,18.10
2017-12-02T11:50:04.130Z,17.57
2017-12-02T11:52:31.742Z,17.63
2017-12-02T11:54:59.216Z,16.60
2017-12-02T11:57:26.777Z,17.63
2017-12-02T11:59:54.313Z,16.80
2017-12-02T12:02:21.877Z,17.20
2017-12-02T12:04:50.360Z,17.67
2017-12-02T12:07:17.936Z,18.33
2017-12-02T12:09:45.473Z,18.43
2017-12-02T12:12:13.812Z,16.40
2017-12-02T12:14:41.381Z,18.10
2017-12-02T12:17:08.925Z,18.40
2017-12-02T12:19:36.450Z,19.03
2017-12-02T12:22:04.007Z,18.33
2017-12-02T12:24:31.643Z,17.63
2017-12-02T12:26:59.234Z,17.60
2017-12-02T12:29:26.802Z,16.07
2017-12-02T12:31:54.405Z,19.63
2017-12-02T12:34:22.234Z,17.40
2017-12-02T12:36:49.783Z,17.53
2017-12-02T12:39:17.377Z,18.07
2017-12-02T12:41:44.953Z,17.13
2017-12-02T12:44:12.498Z,18.87
2017-12-02T12:46:40.089Z,18.20
2017-12-02T12:49:07.666Z,19.27
2017-12-02T12:51:35.966Z,16.40
2017-12-02T12:54:03.520Z,17.13
2017-12-02T12:56:31.099Z,18.53
2017-12-02T12:58:58.665Z,16.93
2017-12-02T13:01:26.246Z,18.77
2017-12-02T13:03:53.784Z,18.87
2017-12-02T13:06:21.343Z,17.90
2017-12-02T13:08:48.900Z,18.37
2017-12-02T13:11:16.461Z,19.43
2017-12-02T13:13:44.023Z,18.57
2017-12-02T13:16:11.569Z,18.40
2017-12-02T13:18:39.524Z,18.13
2017-12-02T13:21:07.065Z,18.73
2017-12-02T13:23:34.612Z,18.67
2017-12-02T13:26:02.208Z,19.47
2017-12-02T13:28:29.764Z,19.30
2017-12-02T13:30:57.285Z,20.73
2017-12-02T13:33:24.853Z,20.17
2017-12-02T13:35:53.167Z,19.87
2017-12-02T13:38:20.709Z,20.50
2017-12-02T13:40:48.245Z,19.37
2017-12-02T13:43:15.793Z,18.67
2017-12-02T13:45:43.347Z,18.07
2017-12-02T13:48:10.917Z,18.13
2017-12-02T13:50:38.467Z,18.57
2017-12-02T13:53:06.037Z,18.00
2017-12-02T13:55:33.558Z,18.07
2017-12-02T13:58:01.147Z,18.53
2017-12-02T14:00:28.677Z,17.20
2017-12-02T14:02:56.596Z,16.77
2017-12-02T14:05:24.158Z,17.60
2017-12-02T14:07:51.704Z,17.60
2017-12-02T14:10:19.298Z,18.57
2017-12-02T14:12:46.898Z,17.87
2017-12-02T14:15:14.434Z,17.00
2017-12-02T14:17:41.994Z,17.60
2017-12-02T14:20:09.557Z,18.00
2017-12-02T14:22:37.080Z,17.53
2017-12-02T14:25:05.411Z,19.30
2017-12-02T14:27:32.969Z,17.47
2017-12-02T14:30:00.528Z,17.23
2017-12-02T14:32:28.050Z,16.80
2017-12-02T14:34:55.597Z,17.70
2017-12-02T14:37:23.961Z,17.53
2017-12-02T14:39:51.774Z,18.97
2017-12-02T14:42:19.349Z,18.60
2017-12-02T14:44:47.305Z,17.17
2017-12-02T14:47:14.829Z,20.13
2017-12-02T14:49:43.157Z,18.57
2017-12-02T14:52:10.722Z,17.93
2017-12-02T14:54:38.733Z,16.83
2017-12-02T14:57:07.022Z,17.00
2017-12-02T14:59:35.360Z,16.57
2017-12-02T15:02:02.886Z,16.83
2017-12-02T15:04:30.442Z,17.40
2017-12-02T15:06:57.969Z,17.07
2017-12-02T15:09:25.586Z,15.80
2017-12-02T15:11:53.111Z,16.87
2017-12-02T15:14:20.669Z,16.27
2017-12-02T15:16:48.542Z,17.03
2017-12-02T15:19:16.155Z,15.90
2017-12-02T15:21:43.694Z,18.00
2017-12-02T15:24:12.172Z,17.83
2017-12-02T15:26:39.705Z,17.80
2017-12-02T15:29:07.271Z,19.13
2017-12-02T15:31:34.840Z,19.27
2017-12-02T15:34:02.406Z,18.23
2017-12-02T15:36:29.980Z,18.60
2017-12-02T15:38:57.542Z,19.10
2017-12-02T15:41:25.084Z,18.50
2017-12-02T15:43:52.879Z,19.60
2017-12-02T15:46:20.440Z,19.70
2017-12-02T15:48:47.997Z,19.57
2017-12-02T15:51:15.569Z,19.53
2017-12-02T15:53:43.117Z,18.63
2017-12-02T15:56:10.637Z,19.40
2017-12-02T15:58:38.400Z,18.50
2017-12-02T16:01:05.988Z,19.70
2017-12-02T16:03:33.559Z,19.53
2017-12-02T16:06:01.090Z,20.97
2017-12-02T16:08:28.650Z,18.07
2017-12-02T16:10:56.182Z,18.47
2017-12-02T16:13:23.760Z,17.67
2017-12-02T16:15:51.306Z,17.93
2017-12-02T16:18:18.845Z,19.90
2017-12-02T16:20:46.479Z,20.63
2017-12-02T16:23:14.083Z,20.97
2017-12-02T16:25:41.651Z,22.37
2017-12-02T16:28:09.204Z,20.97
2017-12-02T16:30:36.802Z,21.37
2017-12-02T16:33:04.337Z,19.87
2017-12-02T16:35:31.897Z,21.03
2017-12-02T16:37:59.454Z,21.53
2017-12-02T16:40:27.441Z,21.00
2017-12-02T16:42:55.001Z,20.10
2017-12-02T16:45:22.853Z,19.70
2017-12-02T16:47:50.419Z,20.77
2017-12-02T16:50:17.953Z,21.00
2017-12-02T16:52:45.528Z,20.77
2017-12-02T16:55:13.077Z,18.07
2017-12-02T16:57:40.612Z,18.63
2017-12-02T17:00:08.567Z,18.17
2017-12-02T17:02:36.092Z,19.60
2017-12-02T17:05:03.646Z,18.43
2017-12-02T17:07:31.505Z,16.33
2017-12-02T17:09:59.064Z,17.90
2017-12-02T17:12:26.633Z,18.23
2017-12-02T17:14:54.165Z,19.40
2017-12-02T17:17:21.750Z,18.00
2017-12-02T17:19:49.336Z,17.97
2017-12-02T17:22:16.884Z,17.63
2017-12-02T17:24:44.446Z,16.13
2017-12-02T17:27:11.970Z,15.53
2017-12-02T17:29:39.501Z,16.40
2017-12-02T17:32:07.074Z,16.63
2017-12-02T17:34:34.609Z,17.00
2017-12-02T17:37:02.185Z,16.37
2017-12-02T17:39:30.535Z,16.43
2017-12-02T17:41:58.108Z,15.77
2017-12-02T17:44:25.632Z,15.40
2017-12-02T17:46:53.194Z,16.80
2017-12-02T17:49:20.780Z,17.47
2017-12-02T17:51:48.316Z,18.83
2017-12-02T17:54:15.862Z,18.03
2017-12-02T17:56:43.438Z,17.53
2017-12-02T17:59:10.997Z,18.47
2017-12-02T18:01:38.557Z,18.57
2017-12-02T18:04:06.091Z,18.50
2017-12-02T18:06:33.613Z,17.47
2017-12-02T18:09:01.207Z,16.67
2017-12-02T18:11:28.731Z,18.30
2017-12-02T18:13:57.053Z,18.43
2017-12-02T18:16:24.573Z,16.97
2017-12-02T18:18:52.896Z,18.20
2017-12-02T18:21:20.603Z,17.57
2017-12-02T18:23:48.202Z,17.77
2017-12-02T18:26:15.733Z,17.70
2017-12-02T18:28:43.288Z,15.20
2017-12-02T18:31:10.844Z,16.57
2017-12-02T18:33:39.144Z,16.50
2017-12-02T18:36:06.660Z,16.23
2017-12-02T18:38:34.264Z,17.00
2017-12-02T18:41:01.792Z,17.07
2017-12-02T18:43:29.425Z,17.43
2017-12-02T18:45:56.948Z,16.63
2017-12-02T18:48:24.500Z,17.63
2017-12-02T18:50:52.086Z,18.57
2017-12-02T18:53:19.664Z,18.07
2017-12-02T18:55:47.205Z,21.03
2017-12-02T18:58:14.778Z,18.37
2017-12-02T19:00:42.351Z,18.00
2017-12-02T19:03:09.901Z,18.90
2017-12-02T19:05:37.504Z,23.13
2017-12-02T19:08:05.797Z,19.27
2017-12-02T19:10:33.685Z,18.33
2017-12-02T19:13:01.265Z,19.70
2017-12-02T19:15:28.824Z,20.50
2017-12-02T19:17:56.425Z,19.30
2017-12-02T19:20:23.954Z,19.47
2017-12-02T19:22:51.514Z,17.83
2017-12-02T19:25:19.108Z,18.70
2017-12-02T19:27:46.692Z,17.17
2017-12-02T19:30:14.218Z,16.33
2017-12-02T19:32:41.757Z,16.90
2017-12-02T19:35:09.335Z,15.13
2017-12-02T19:37:36.883Z,16.23
2017-12-02T19:40:04.417Z,15.93
2017-12-02T19:42:31.997Z,17.63
2017-12-02T19:44:59.546Z,17.93
2017-12-02T19:47:27.100Z,18.50
2017-12-02T19:49:54.625Z,18.00
2017-12-02T19:52:22.182Z,16.20
2017-12-02T19:54:49.710Z,16.43
2017-12-02T19:57:17.278Z,17.27
2017-12-02T19:59:44.798Z,16.57
2017-12-02T20:02:12.362Z,16.23
2017-12-02T20:04:39.935Z,16.60
2017-12-02T20:07:07.518Z,16.83
2017-12-02T20:09:35.870Z,17.40
2017-12-02T20:12:03.442Z,18.47
2017-12-02T20:14:31.057Z,17.33
2017-12-02T20:16:58.642Z,15.53
2017-12-02T20:19:26.158Z,15.77
2017-12-02T20:21:53.735Z,16.43
2017-12-02T20:24:21.350Z,15.27
2017-12-02T20:26:48.918Z,15.67
2017-12-02T20:29:17.210Z,16.43
2017-12-02T20:31:44.729Z,15.47
2017-12-02T20:34:12.344Z,16.43
2017-12-02T20:36:39.874Z,16.30
2017-12-02T20:39:07.452Z,16.33
2017-12-02T20:41:34.976Z,15.50
2017-12-02T20:44:02.586Z,15.60
2017-12-02T20:46:30.182Z,15.00
2017-12-02T20:48:57.715Z,16.00
2017-12-02T20:51:25.315Z,16.00
2017-12-02T20:53:52.861Z,15.83
2017-12-02T20:56:20.482Z,15.80
2017-12-02T20:58:48.112Z,15.43
2017-12-02T21:01:16.405Z,14.80
2017-12-02T21:03:43.938Z,16.27
2017-12-02T21:06:11.486Z,17.50
2017-12-02T21:08:39.298Z,17.83
2017-12-02T21:11:06.843Z,16.13
2017-12-02T21:13:34.405Z,16.47
2017-12-02T21:16:02.837Z,16.20
2017-12-02T21:18:30.414Z,16.53
2017-12-02T21:20:57.981Z,15.13
2017-12-02T21:23:25.677Z,16.43
2017-12-02T21:25:53.235Z,15.20
2017-12-02T21:28:21.536Z,15.97
2017-12-02T21:30:49.097Z,16.50
2017-12-02T21:33:16.650Z,16.87
2017-12-02T21:35:44.169Z,17.47
2017-12-02T21:38:11.728Z,17.07
2017-12-02T21:40:39.254Z,18.97
2017-12-02T21:43:06.828Z,18.60
2017-12-02T21:45:34.389Z,18.47
2017-12-02T21:48:01.926Z,19.27
2017-12-02T21:50:29.524Z,17.77
2017-12-02T21:52:57.062Z,18.10
2017-12-02T21:55:24.614Z,18.53
2017-12-02T21:57:52.132Z,19.67
2017-12-02T22:00:19.719Z,17.93
2017-12-02T22:02:47.297Z,18.63
2017-12-02T22:05:14.821Z,18.50
2017-12-02T22:07:42.377Z,17.13
2017-12-02T22:10:09.908Z,19.27
2017-12-02T22:12:38.236Z,18.40
2017-12-02T22:15:05.760Z,19.83
2017-12-02T22:17:34.084Z,19.60
2017-12-02T22:20:01.641Z,18.93
2017-12-02T22:22:29.166Z,19.50
2017-12-02T22:24:56.807Z,19.77
2017-12-02T22:27:25.172Z,19.33
2017-12-02T22:29:52.788Z,17.87
2017-12-02T22:32:20.377Z,16.00
2017-12-02T22:34:47.933Z,14.77
2017-12-02T22:37:15.528Z,15.93
2017-12-02T22:39:43.050Z,15.93
2017-12-02T22:42:10.705Z,14.07
2017-12-02T22:44:38.308Z,15.40
2017-12-02T22:47:06.686Z,14.50
2017-12-02T22:49:34.981Z,15.30
2017-12-02T22:52:02.517Z,15.90
2017-12-02T22:54:30.851Z,16.27
2017-12-02T22:57:03.486Z,15.47
2017-12-02T22:59:31.040Z,15.73
2017-12-02T23:01:59.356Z,15.87
2017-12-02T23:04:27.062Z,15.03
2017-12-02T23:06:54.687Z,15.50
2017-12-02T23:09:22.245Z,14.67
2017-12-02T23:11:49.808Z,14.70
2017-12-02T23:14:17.330Z,15.67
2017-12-02T23:16:45.670Z,15.90
2017-12-02T23:21:40.736Z,15.77
2017-12-02T23:24:08.289Z,15.17
2017-12-02T23:26:35.833Z,15.70
2017-12-02T23:29:04.152Z,15.33
2017-12-02T23:31:31.838Z,15.63
2017-12-02T23:33:59.415Z,15.20
2017-12-02T23:36:26.975Z,14.30
2017-12-02T23:38:54.534Z,16.10
2017-12-02T23:41:22.140Z,14.70
2017-12-02T23:43:49.622Z,14.97
2017-12-02T23:46:17.175Z,15.33
2017-12-02T23:48:44.732Z,13.90
2017-12-02T23:51:12.258Z,14.17
2017-12-02T23:53:40.578Z,15.83
2017-12-02T23:56:08.137Z,14.60
2017-12-02T23:58:35.662Z,13.30
